Ora Direzione Vento Velocita' Vento Media Vento Raffica Max. Temperatura Wind Chill Pioggia Pressione
20:44:54.0263 °(W)2.5 Kts2.5 Kts11.3 Kts22.3 °C22.3 °C0.0 mm1016.2 Hpa
20:24:32.0261 °(W)2.5 Kts2.5 Kts11.3 Kts22.5 °C22.5 °C0.0 mm1016.1 Hpa
20:04:22.0258 °(WSW)3.5 Kts3.5 Kts11.3 Kts22.8 °C22.8 °C0.0 mm1016.2 Hpa
19:44:06.0263 °(W)2.5 Kts3.5 Kts11.3 Kts22.9 °C22.9 °C0.0 mm1016.3 Hpa
19:24:45.0260 °(W)3.5 Kts3.5 Kts11.3 Kts23.0 °C23.0 °C0.0 mm1016.3 Hpa
19:04:28.0267 °(W)4.3 Kts4.3 Kts11.3 Kts23.1 °C23.1 °C0.0 mm1016.3 Hpa
18:44:05.0240 °(WSW)3.5 Kts3.5 Kts11.3 Kts23.3 °C23.3 °C0.0 mm1016.4 Hpa
18:24:46.0231 °(SW)4.3 Kts3.5 Kts11.3 Kts23.4 °C23.4 °C0.0 mm1016.4 Hpa
18:04:28.0237 °(WSW)4.3 Kts4.3 Kts11.3 Kts23.2 °C23.2 °C0.0 mm1016.4 Hpa
17:44:08.0230 °(SW)4.3 Kts5.2 Kts11.3 Kts23.1 °C23.1 °C0.0 mm1016.7 Hpa
17:23:46.0236 °(SW)6.0 Kts6.0 Kts11.3 Kts23.2 °C23.2 °C0.0 mm1016.9 Hpa
17:04:32.0242 °(WSW)7.0 Kts6.0 Kts11.3 Kts23.4 °C23.4 °C0.0 mm1017.0 Hpa
16:44:08.0234 °(SW)6.0 Kts6.0 Kts11.3 Kts23.3 °C23.3 °C0.0 mm1017.3 Hpa
16:23:50.0242 °(WSW)7.0 Kts6.0 Kts11.3 Kts23.4 °C23.4 °C0.0 mm1017.2 Hpa
16:04:35.0238 °(WSW)6.0 Kts7.0 Kts11.3 Kts23.4 °C23.4 °C0.0 mm1017.2 Hpa
15:44:20.0242 °(WSW)7.8 Kts7.8 Kts11.3 Kts23.4 °C23.4 °C0.0 mm1017.3 Hpa
15:24:08.0232 °(SW)8.7 Kts7.8 Kts11.3 Kts23.3 °C23.3 °C0.0 mm1017.3 Hpa
15:04:51.0234 °(SW)7.8 Kts7.0 Kts11.3 Kts23.6 °C23.6 °C0.0 mm1017.3 Hpa
14:44:51.0240 °(WSW)7.8 Kts7.8 Kts11.3 Kts22.9 °C22.9 °C0.0 mm1017.2 Hpa
14:23:53.0226 °(SW)6.0 Kts7.0 Kts11.3 Kts23.3 °C23.3 °C0.0 mm1017.3 Hpa